Time;durP1;ratioP1;P1;durP2;ratioP2;P2;SDS_P1;SDS_P2;PMS_P1;PMS_P2;Temp;Humidity;BMP_temperature;BMP_pressure;BME280_temperature;BME280_humidity;BME280_pressure;Samples;Min_cycle;Max_cycle;Signal;HPM_P1;HPM_P2
2022/06/07 00:02:11;;;;;;;1999.90;999.90;;;16.50;99.90;;;;;;4977070;28;20450;-76
2022/06/07 00:04:38;;;;;;;1999.90;999.90;;;16.50;99.90;;;;;;4977063;28;20078;-76
2022/06/07 00:07:04;;;;;;;1999.90;999.90;;;16.40;99.90;;;;;;4976400;28;20031;-76
2022/06/07 00:09:30;;;;;;;1999.90;999.90;;;16.50;99.90;;;;;;4976986;28;20026;-77
2022/06/07 00:11:57;;;;;;;1999.90;999.90;;;16.50;99.90;;;;;;4976960;28;20042;-76
2022/06/07 00:14:24;;;;;;;1999.90;999.90;;;16.60;99.90;;;;;;4968488;28;20406;-77
2022/06/07 00:16:50;;;;;;;1999.90;999.90;;;16.60;99.90;;;;;;4976635;28;20508;-76
2022/06/07 00:19:15;;;;;;;1999.90;999.90;;;16.60;99.90;;;;;;4966573;28;20063;-76
2022/06/07 00:21:41;;;;;;;1999.90;999.90;;;16.60;99.90;;;;;;4970997;28;20035;-76
2022/06/07 00:24:07;;;;;;;1999.90;999.90;;;16.60;99.90;;;;;;4960263;28;20098;-76
2022/06/07 00:26:33;;;;;;;1999.90;999.90;;;16.70;99.90;;;;;;4960334;28;20039;-76
2022/06/07 00:29:00;;;;;;;1999.90;999.90;;;16.70;99.90;;;;;;4972971;28;20116;-76
2022/06/07 00:31:27;;;;;;;1999.90;999.90;;;16.60;99.90;;;;;;4976478;28;20062;-76
2022/06/07 00:33:54;;;;;;;1999.90;999.90;;;16.60;99.90;;;;;;4972855;28;20027;-76
2022/06/07 00:36:20;;;;;;;1999.90;999.90;;;16.50;99.90;;;;;;4976533;28;20037;-76
2022/06/07 00:38:45;;;;;;;1999.90;999.90;;;16.50;99.90;;;;;;4944897;28;20023;-77
2022/06/07 00:41:12;;;;;;;1999.90;999.90;;;16.50;99.90;;;;;;4967568;28;20099;-76
2022/06/07 00:43:38;;;;;;;1999.90;999.90;;;16.40;99.90;;;;;;4962882;28;20505;-76
2022/06/07 00:46:11;;;;;;;1999.90;999.90;;;16.40;99.90;;;;;;4970295;28;20035;-76
2022/06/07 00:48:38;;;;;;;1999.90;999.90;;;16.30;99.90;;;;;;4973702;28;20497;-76
2022/06/07 00:51:10;;;;;;;1999.90;999.90;;;16.30;99.90;;;;;;4976233;28;20027;-77
2022/06/07 00:53:36;;;;;;;1999.90;999.90;;;16.30;99.90;;;;;;4976275;28;20027;-76
2022/06/07 00:56:03;;;;;;;1999.90;999.90;;;16.30;99.90;;;;;;4975895;28;20526;-76
2022/06/07 00:58:30;;;;;;;1999.90;999.90;;;16.30;99.90;;;;;;4962657;28;20110;-76
2022/06/07 01:00:58;;;;;;;1999.90;999.90;;;16.30;99.90;;;;;;4976230;28;20023;-76
2022/06/07 01:03:24;;;;;;;1999.90;999.90;;;16.30;99.90;;;;;;4975975;28;20099;-76
2022/06/07 01:05:51;;;;;;;1999.90;999.90;;;16.30;99.90;;;;;;4976092;28;20077;-76
2022/06/07 01:11:02;;;;;;;1999.90;999.90;;;16.40;99.90;;;;;;4976048;28;20038;-77
2022/06/07 01:13:32;;;;;;;1999.90;999.90;;;16.40;99.90;;;;;;4972765;28;20454;-76
2022/06/07 01:16:06;;;;;;;1999.90;999.90;;;16.50;99.90;;;;;;4970177;28;20022;-76
2022/06/07 01:18:32;;;;;;;1999.90;999.90;;;16.50;99.90;;;;;;4967809;28;20438;-77
2022/06/07 01:21:21;;;;;;;1999.90;999.90;;;16.50;99.90;;;;;;4972202;28;20510;-77
2022/06/07 01:23:48;;;;;;;1999.90;999.90;;;16.40;99.90;;;;;;4957340;28;20581;-76
2022/06/07 01:26:14;;;;;;;1999.90;999.90;;;16.40;99.90;;;;;;4962707;28;20023;-76
2022/06/07 01:28:40;;;;;;;1999.90;999.90;;;16.40;99.90;;;;;;4975601;28;20027;-77
2022/06/07 01:31:06;;;;;;;1999.90;999.90;;;16.50;99.90;;;;;;4975228;28;20544;-76
2022/06/07 01:33:32;;;;;;;1999.90;999.90;;;16.40;99.90;;;;;;4975197;28;20034;-76
2022/06/07 01:36:07;;;;;;;1999.90;999.90;;;16.40;99.90;;;;;;4975419;28;20015;-76
2022/06/07 01:38:35;;;;;;;1999.90;999.90;;;16.40;99.90;;;;;;4965854;28;20498;-77
2022/06/07 01:43:45;;;;;;;1999.90;999.90;;;16.40;99.90;;;;;;4965055;28;20041;-77
2022/06/07 01:46:11;;;;;;;1999.90;999.90;;;16.40;99.90;;;;;;4968420;28;20110;-76
2022/06/07 01:48:37;;;;;;;1999.90;999.90;;;16.40;99.90;;;;;;4972117;28;20034;-77
2022/06/07 01:51:04;;;;;;;1999.90;999.90;;;16.50;99.90;;;;;;4975223;28;20026;-76
2022/06/07 01:53:31;;;;;;;1999.90;999.90;;;16.50;99.90;;;;;;4964786;28;20532;-77
2022/06/07 01:56:14;;;;;;;1999.90;999.90;;;16.50;99.90;;;;;;4975438;28;20081;-77
2022/06/07 01:58:42;;;;;;;1999.90;999.90;;;16.50;99.90;;;;;;4967387;28;20031;-77
2022/06/07 02:01:08;;;;;;;1999.90;999.90;;;16.50;99.90;;;;;;4975028;28;20057;-76
2022/06/07 02:03:34;;;;;;;1999.90;999.90;;;16.50;99.90;;;;;;4974603;28;20034;-76
2022/06/07 02:06:01;;;;;;;1999.90;999.90;;;16.60;99.90;;;;;;4974895;28;20026;-76
2022/06/07 02:08:27;;;;;;;1999.90;999.90;;;16.50;99.90;;;;;;4973958;28;20089;-76
2022/06/07 02:10:54;;;;;;;1999.90;999.90;;;16.50;99.90;;;;;;4974093;28;20053;-77
2022/06/07 02:13:20;;;;;;;1999.90;999.90;;;16.50;99.90;;;;;;4971264;28;20103;-77
2022/06/07 02:15:49;;;;;;;1999.90;999.90;;;16.50;99.90;;;;;;4969896;28;20035;-77
2022/06/07 02:18:15;;;;;;;1999.90;999.90;;;16.40;99.90;;;;;;4974746;28;20050;-77
2022/06/07 02:20:42;;;;;;;1999.90;999.90;;;16.40;99.90;;;;;;4974216;28;20034;-77
2022/06/07 02:23:08;;;;;;;1999.90;999.90;;;16.40;99.90;;;;;;4960138;28;20043;-77
2022/06/07 02:25:41;;;;;;;1999.90;999.90;;;16.40;99.90;;;;;;4956715;28;20027;-77
2022/06/07 02:28:08;;;;;;;1999.90;999.90;;;16.40;99.90;;;;;;4974665;28;20037;-77
2022/06/07 02:30:34;;;;;;;1999.90;999.90;;;16.40;99.90;;;;;;4973804;28;20027;-77
2022/06/07 02:33:00;;;;;;;1999.90;999.90;;;16.40;99.90;;;;;;4974204;28;20085;-77
2022/06/07 02:35:26;;;;;;;1999.90;999.90;;;16.50;99.90;;;;;;4973732;28;20034;-75
2022/06/07 02:37:52;;;;;;;1999.90;999.90;;;16.40;99.90;;;;;;4969976;28;20028;-77
2022/06/07 02:40:19;;;;;;;1999.90;999.90;;;16.50;99.90;;;;;;4966897;28;20054;-76
2022/06/07 02:42:44;;;;;;;1999.90;999.90;;;16.50;99.90;;;;;;4964140;28;20391;-77
2022/06/07 02:45:11;;;;;;;1999.90;999.90;;;16.50;99.90;;;;;;4965444;28;20031;-76
2022/06/07 02:47:37;;;;;;;1999.90;999.90;;;16.40;99.90;;;;;;4964267;28;20095;-77
2022/06/07 02:50:03;;;;;;;1999.90;999.90;;;16.40;99.90;;;;;;4974414;28;20514;-77
2022/06/07 02:52:29;;;;;;;1999.90;999.90;;;16.40;99.90;;;;;;4973947;28;20105;-76
2022/06/07 02:54:55;;;;;;;1999.90;999.90;;;16.50;99.90;;;;;;4974125;28;20423;-77
2022/06/07 02:57:20;;;;;;;1999.90;999.90;;;16.50;99.90;;;;;;4971536;28;20038;-77
2022/06/07 02:59:46;;;;;;;1999.90;999.90;;;16.60;99.90;;;;;;4967027;28;20425;-77
2022/06/07 03:02:13;;;;;;;1999.90;999.90;;;16.60;99.90;;;;;;4973924;28;20030;-77
2022/06/07 03:04:38;;;;;;;1999.90;999.90;;;16.70;99.90;;;;;;4974038;28;20035;-77
2022/06/07 03:07:04;;;;;;;1999.90;999.90;;;16.60;99.90;;;;;;4974090;28;20086;-77
2022/06/07 03:09:30;;;;;;;1999.90;999.90;;;16.70;99.90;;;;;;4973948;28;20118;-77
2022/06/07 03:11:56;;;;;;;1999.90;999.90;;;16.70;99.90;;;;;;4973504;28;20109;-77
2022/06/07 03:14:22;;;;;;;1999.90;999.90;;;16.70;99.90;;;;;;4965242;28;20068;-77
2022/06/07 03:16:47;;;;;;;1999.90;999.90;;;16.70;99.90;;;;;;4973249;28;20062;-77
2022/06/07 03:19:13;;;;;;;1999.90;999.90;;;16.70;99.90;;;;;;4973541;28;20031;-77
2022/06/07 03:21:39;;;;;;;1999.90;999.90;;;16.80;99.90;;;;;;4968169;28;20103;-77
2022/06/07 03:24:06;;;;;;;1999.90;999.90;;;16.80;99.90;;;;;;4957488;28;20078;-76
2022/06/07 03:26:32;;;;;;;1999.90;999.90;;;16.80;99.90;;;;;;4962972;28;20023;-76
2022/06/07 03:28:58;;;;;;;1999.90;999.90;;;16.70;99.90;;;;;;4973718;28;20046;-77
2022/06/07 03:31:23;;;;;;;1999.90;999.90;;;16.80;99.90;;;;;;4973755;28;20117;-77
2022/06/07 03:33:49;;;;;;;1999.90;999.90;;;16.80;99.90;;;;;;4973718;28;20066;-77
2022/06/07 03:36:27;;;;;;;1999.90;999.90;;;16.80;99.90;;;;;;4972840;28;20023;-76
2022/06/07 03:38:55;;;;;;;1999.90;999.90;;;16.80;99.90;;;;;;4963394;28;20034;-77
2022/06/07 03:41:25;;;;;;;1999.90;999.90;;;16.80;99.90;;;;;;4970892;28;20486;-77
2022/06/07 03:43:51;;;;;;;1999.90;999.90;;;16.80;99.90;;;;;;4965308;28;20479;-77
2022/06/07 03:46:23;;;;;;;1999.90;999.90;;;16.80;99.90;;;;;;4965942;28;20105;-77
2022/06/07 03:48:49;;;;;;;1999.90;999.90;;;16.80;99.90;;;;;;4972354;28;20041;-77
2022/06/07 03:51:18;;;;;;;1999.90;999.90;;;16.70;99.90;;;;;;4956067;28;20027;-77
2022/06/07 03:53:44;;;;;;;1999.90;999.90;;;16.70;99.90;;;;;;4973502;28;20547;-77
2022/06/07 03:56:10;;;;;;;1999.90;999.90;;;16.60;99.90;;;;;;4973386;28;20099;-76
2022/06/07 03:58:39;;;;;;;1999.90;999.90;;;16.60;99.90;;;;;;4965841;28;20027;-76
2022/06/07 04:01:15;;;;;;;1999.90;999.90;;;16.60;99.90;;;;;;4973064;28;20153;-77
2022/06/07 04:03:47;;;;;;;1999.90;999.90;;;16.50;99.90;;;;;;4956035;28;20445;-77
2022/06/07 04:06:19;;;;;;;1999.90;999.90;;;16.50;99.90;;;;;;4973163;28;20055;-77
2022/06/07 04:08:45;;;;;;;1999.90;999.90;;;16.50;99.90;;;;;;4973467;28;20026;-76
2022/06/07 04:11:12;;;;;;;1999.90;999.90;;;16.50;99.90;;;;;;4973109;28;20371;-76
2022/06/07 04:13:37;;;;;;;1999.90;999.90;;;16.40;99.90;;;;;;4968866;28;20525;-76
2022/06/07 04:16:08;;;;;;;1999.90;999.90;;;16.20;99.90;;;;;;4967868;28;20106;-76
2022/06/07 04:18:34;;;;;;;1999.90;999.90;;;15.80;99.90;;;;;;4973210;28;20073;-76
2022/06/07 04:21:00;;;;;;;1999.90;999.90;;;15.70;99.90;;;;;;4972783;28;20031;-76
2022/06/07 04:23:26;;;;;;;1999.90;999.90;;;15.70;99.90;;;;;;4947626;28;20040;-76
2022/06/07 04:25:51;;;;;;;1999.90;999.90;;;15.60;99.90;;;;;;4957966;28;20034;-76
2022/06/07 04:28:18;;;;;;;1999.90;999.90;;;15.60;99.90;;;;;;4973428;28;20109;-76
2022/06/07 04:30:48;;;;;;;1999.90;999.90;;;15.70;99.90;;;;;;4973721;28;20501;-76
2022/06/07 04:33:15;;;;;;;1999.90;999.90;;;15.70;99.90;;;;;;4976798;28;20026;-76
2022/06/07 04:35:45;;;;;;;1999.90;999.90;;;15.70;99.90;;;;;;4975884;28;20023;-76
2022/06/07 04:38:12;;;;;;;1999.90;999.90;;;15.70;99.90;;;;;;4969924;28;20054;-76
2022/06/07 04:40:42;;;;;;;1999.90;999.90;;;15.80;99.90;;;;;;4959803;28;20019;-76
2022/06/07 04:43:09;;;;;;;1999.90;999.90;;;15.80;99.90;;;;;;4962943;28;20102;-76
2022/06/07 04:45:35;;;;;;;1999.90;999.90;;;15.90;99.90;;;;;;4955345;28;20045;-75
2022/06/07 04:48:00;;;;;;;1999.90;999.90;;;15.90;99.90;;;;;;4969222;28;20049;-76
2022/06/07 04:50:27;;;;;;;1999.90;999.90;;;16.00;99.90;;;;;;4976073;28;20482;-76
2022/06/07 04:52:54;;;;;;;1999.90;999.90;;;16.00;99.90;;;;;;4976449;28;20105;-76
2022/06/07 04:55:20;;;;;;;1999.90;999.90;;;16.00;99.90;;;;;;4976245;28;20030;-76
2022/06/07 04:57:46;;;;;;;1999.90;999.90;;;16.00;99.90;;;;;;4970083;28;20048;-76
2022/06/07 05:00:17;;;;;;;1999.90;999.90;;;16.10;99.90;;;;;;4947498;28;20062;-75
2022/06/07 05:02:43;;;;;;;1999.90;999.90;;;16.20;99.90;;;;;;4975933;28;20035;-75
2022/06/07 05:05:10;;;;;;;1999.90;999.90;;;16.20;99.90;;;;;;4975905;28;20077;-76
2022/06/07 05:07:37;;;;;;;1999.90;999.90;;;16.30;99.90;;;;;;4975173;28;20222;-75
2022/06/07 05:10:04;;;;;;;1999.90;999.90;;;16.30;99.90;;;;;;4971816;28;20054;-76
2022/06/07 05:12:32;;;;;;;1999.90;999.90;;;16.30;99.90;;;;;;4956696;28;20039;-76
2022/06/07 05:14:58;;;;;;;1999.90;999.90;;;16.40;99.90;;;;;;4969722;28;20059;-78
2022/06/07 05:17:24;;;;;;;1999.90;999.90;;;16.40;99.90;;;;;;4947908;28;20494;-76
2022/06/07 05:19:50;;;;;;;1999.90;999.90;;;16.40;99.90;;;;;;4974110;28;20093;-76
2022/06/07 05:22:16;;;;;;;1999.90;999.90;;;16.50;99.90;;;;;;4966013;28;20098;-76
2022/06/07 05:24:41;;;;;;;1999.90;999.90;;;16.50;99.90;;;;;;4958131;28;20103;-75
2022/06/07 05:27:08;;;;;;;1999.90;999.90;;;16.60;99.90;;;;;;4969743;28;20039;-75
2022/06/07 05:29:56;;;;;;;1999.90;999.90;;;16.60;99.90;;;;;;4975585;28;20038;-76
2022/06/07 05:32:22;;;;;;;1999.90;999.90;;;16.70;99.90;;;;;;4957679;28;20502;-76
2022/06/07 05:34:48;;;;;;;1999.90;999.90;;;16.70;99.90;;;;;;4975517;28;20114;-76
2022/06/07 05:37:16;;;;;;;1999.90;999.90;;;16.70;99.90;;;;;;4973749;28;20490;-76
2022/06/07 05:39:42;;;;;;;1999.90;999.90;;;16.80;99.90;;;;;;4963895;28;20118;-76
2022/06/07 05:42:11;;;;;;;1999.90;999.90;;;16.90;99.90;;;;;;4962692;28;20027;-75
2022/06/07 05:44:36;;;;;;;1999.90;999.90;;;17.00;99.90;;;;;;4956570;28;20038;-75
2022/06/07 05:47:03;;;;;;;1999.90;999.90;;;17.00;99.90;;;;;;4960531;28;20027;-75
2022/06/07 05:49:29;;;;;;;1999.90;999.90;;;17.00;99.90;;;;;;4967715;28;20034;-75
2022/06/07 05:51:55;;;;;;;1999.90;999.90;;;17.00;99.90;;;;;;4971182;28;20102;-75
2022/06/07 05:54:21;;;;;;;1999.90;999.90;;;17.00;99.90;;;;;;4975104;28;20043;-75
2022/06/07 05:56:46;;;;;;;1999.90;999.90;;;17.10;99.90;;;;;;4974911;28;20580;-75
2022/06/07 05:59:12;;;;;;;1999.90;999.90;;;17.10;99.90;;;;;;4959098;28;20037;-75
2022/06/07 06:01:38;;;;;;;1999.90;999.90;;;17.20;99.90;;;;;;4967033;28;20082;-75
2022/06/07 06:04:07;;;;;;;1999.90;999.90;;;17.30;99.90;;;;;;4954740;28;20483;-76
2022/06/07 06:06:36;;;;;;;1999.90;999.90;;;17.40;99.90;;;;;;4951687;28;20042;-75
2022/06/07 06:11:48;;;;;;;1999.90;999.90;;;17.80;99.90;;;;;;4957818;28;20054;-75
2022/06/07 06:14:13;;;;;;;1999.90;999.90;;;17.80;99.90;;;;;;4958943;28;20490;-75
2022/06/07 06:16:39;;;;;;;1999.90;999.90;;;17.80;99.90;;;;;;4956782;28;20035;-75
2022/06/07 06:19:05;;;;;;;1999.90;999.90;;;17.80;99.90;;;;;;4961739;28;20027;-76
2022/06/07 06:21:37;;;;;;;1999.90;999.90;;;17.70;99.90;;;;;;4969444;28;20134;-76
2022/06/07 06:24:04;;;;;;;1999.90;999.90;;;17.60;99.90;;;;;;4956350;28;20532;-76
2022/06/07 06:26:30;;;;;;;1999.90;999.90;;;17.70;99.90;;;;;;4954135;28;20051;-76
2022/06/07 06:28:57;;;;;;;1999.90;999.90;;;17.80;99.90;;;;;;4969471;28;20384;-76
2022/06/07 06:31:24;;;;;;;1999.90;999.90;;;17.80;99.90;;;;;;4973103;28;20031;-76
2022/06/07 06:33:52;;;;;;;1999.90;999.90;;;17.90;99.90;;;;;;4973746;28;20058;-76
2022/06/07 06:36:25;;;;;;;1999.90;999.90;;;18.00;99.90;;;;;;4958418;28;20034;-76
2022/06/07 06:38:51;;;;;;;;;;;18.10;99.90;;;;;;4962068;28;20026;-77
2022/06/07 06:41:21;;;;;;;1999.90;999.90;;;18.30;99.90;;;;;;4952503;28;20354;-76
2022/06/07 06:43:47;;;;;;;1999.90;999.90;;;18.40;99.90;;;;;;4949581;28;20446;-77
2022/06/07 06:46:19;;;;;;;1999.90;999.90;;;18.40;99.90;;;;;;4956055;28;20413;-77
2022/06/07 06:48:45;;;;;;;1999.90;999.90;;;18.40;99.90;;;;;;4969785;28;20026;-77
2022/06/07 06:51:13;;;;;;;1999.90;999.90;;;18.50;99.90;;;;;;4954355;28;20027;-77
2022/06/07 06:53:41;;;;;;;1999.90;999.90;;;18.50;99.90;;;;;;4954588;28;20047;-76
2022/06/07 06:56:09;;;;;;;1999.90;999.90;;;18.20;99.90;;;;;;4957446;28;20057;-77
2022/06/07 06:58:35;;;;;;;1999.90;999.90;;;18.00;99.90;;;;;;4957762;28;20494;-77
2022/06/07 07:01:04;;;;;;;1999.90;999.90;;;18.10;99.90;;;;;;4955588;28;20055;-77
2022/06/07 07:03:31;;;;;;;1999.90;999.90;;;18.20;99.90;;;;;;4951375;28;20082;-78
2022/06/07 07:05:57;;;;;;;1999.90;999.90;;;18.40;99.90;;;;;;4952940;28;20419;-77
2022/06/07 07:08:25;;;;;;;1999.90;999.90;;;18.60;99.90;;;;;;4956770;28;20019;-77
2022/06/07 07:11:02;;;;;;;1999.90;999.90;;;18.60;99.90;;;;;;4950730;28;20043;-76
2022/06/07 07:13:29;;;;;;;1999.90;999.90;;;18.70;99.90;;;;;;4957766;28;20038;-76
2022/06/07 07:15:54;;;;;;;1999.90;999.90;;;18.80;99.90;;;;;;4943196;29;20043;-77
2022/06/07 07:18:20;;;;;;;1999.90;999.90;;;18.90;99.90;;;;;;4961016;28;20042;-77
2022/06/07 07:20:46;;;;;;;1999.90;999.90;;;19.00;99.90;;;;;;4960070;28;20027;-77
2022/06/07 07:23:11;;;;;;;1999.90;999.90;;;19.00;99.90;;;;;;4957014;28;20487;-76
2022/06/07 07:25:37;;;;;;;1999.90;999.90;;;19.00;99.90;;;;;;4953461;28;20032;-80
2022/06/07 07:28:04;;;;;;;1999.90;999.90;;;18.80;99.90;;;;;;4955389;28;20039;-78
2022/06/07 07:30:29;;;;;;;1999.90;999.90;;;18.70;99.90;;;;;;4963373;28;20031;-76
2022/06/07 07:32:56;;;;;;;1999.90;999.90;;;18.70;99.90;;;;;;4953098;28;20031;-74
2022/06/07 07:35:23;;;;;;;1999.90;999.90;;;20.40;99.90;;;;;;4954429;28;20051;-76
2022/06/07 07:37:48;;;;;;;1999.90;999.90;;;21.90;99.90;;;;;;4956278;28;20019;-76
2022/06/07 07:40:14;;;;;;;1999.90;999.90;;;21.30;99.90;;;;;;4947794;28;20062;-81
2022/06/07 07:42:41;;;;;;;1999.90;999.90;;;20.70;99.90;;;;;;4964107;28;20035;-78
2022/06/07 07:45:08;;;;;;;1999.90;999.90;;;20.30;99.90;;;;;;4963164;28;20035;-74
2022/06/07 07:47:34;;;;;;;1999.90;999.90;;;20.30;99.90;;;;;;4956221;28;20438;-77
2022/06/07 07:50:00;;;;;;;1999.90;999.90;;;22.10;99.90;;;;;;4960427;28;20439;-77
2022/06/07 07:52:27;;;;;;;1999.90;999.90;;;23.30;99.90;;;;;;4966951;28;20046;-78
2022/06/07 07:54:53;;;;;;;1999.90;999.90;;;22.80;99.90;;;;;;4942532;28;20039;-75
2022/06/07 07:57:18;;;;;;;1999.90;999.90;;;23.60;99.90;;;;;;4953674;28;20023;-76
2022/06/07 07:59:44;;;;;;;1999.90;999.90;;;22.70;99.90;;;;;;4958429;28;20031;-76
2022/06/07 08:02:17;;;;;;;1999.90;999.90;;;21.90;99.90;;;;;;4960990;28;20038;-75
2022/06/07 08:04:43;;;;;;;1999.90;999.90;;;21.70;99.90;;;;;;4953743;28;20031;-75
2022/06/07 08:07:09;;;;;;;1999.90;999.90;;;21.50;99.90;;;;;;4959210;28;20094;-75
2022/06/07 08:09:34;;;;;;;1999.90;999.90;;;21.00;99.90;;;;;;4959446;28;20687;-75
2022/06/07 08:12:05;;;;;;;1999.90;999.90;;;21.30;99.90;;;;;;4956413;28;20035;-74
2022/06/07 08:14:31;;;;;;;1999.90;999.90;;;20.90;99.90;;;;;;4957123;28;20557;-76
2022/06/07 08:16:57;;;;;;;1999.90;999.90;;;20.50;99.90;;;;;;4958542;28;20027;-74
2022/06/07 08:19:22;;;;;;;1999.90;999.90;;;22.00;99.90;;;;;;4955663;28;20034;-76
2022/06/07 08:21:48;;;;;;;1999.90;999.90;;;23.50;99.90;;;;;;4963716;28;20450;-75
2022/06/07 08:24:16;;;;;;;1999.90;999.90;;;24.60;99.90;;;;;;4954916;28;20390;-77
2022/06/07 08:26:42;;;;;;;1999.90;999.90;;;24.70;99.30;;;;;;4941577;29;20043;-77
2022/06/07 08:29:09;;;;;;;1999.90;999.90;;;25.10;98.90;;;;;;4957027;28;20027;-78
2022/06/07 08:31:35;;;;;;;1999.90;999.90;;;25.30;99.20;;;;;;4966638;28;20402;-79
2022/06/07 08:39:32;;;;;;;1999.90;999.90;;;24.90;99.60;;;;;;4961671;28;20105;-77
2022/06/07 08:42:01;;;;;;;1999.90;999.90;;;25.20;98.10;;;;;;4957819;28;20039;-74
2022/06/07 08:44:40;;;;;;;1999.90;999.90;;;25.50;98.30;;;;;;4960472;28;20027;-76
2022/06/07 08:47:33;;;;;;;1999.90;999.90;;;24.70;98.30;;;;;;4947710;28;20046;-75
2022/06/07 08:50:12;;;;;;;1999.90;999.90;;;24.80;98.00;;;;;;4952135;28;20099;-76
2022/06/07 08:52:37;;;;;;;1999.90;999.90;;;25.60;97.70;;;;;;4944349;28;20039;-76
2022/06/07 08:55:21;;;;;;;1999.90;999.90;;;24.80;97.70;;;;;;4950233;28;20034;-75
2022/06/07 08:57:55;;;;;;;1999.90;999.90;;;23.50;99.90;;;;;;4962490;28;20070;-76
2022/06/07 09:00:31;;;;;;;1999.90;999.90;;;24.60;99.20;;;;;;4959933;28;20034;-77
2022/06/07 09:03:24;;;;;;;1999.90;999.90;;;25.30;98.30;;;;;;4954445;28;20078;-79
2022/06/07 09:05:55;;;;;;;1999.90;999.90;;;25.20;98.10;;;;;;4960698;28;20031;-77
2022/06/07 09:08:22;;;;;;;1999.90;999.90;;;25.10;98.30;;;;;;4960054;28;20069;-78
2022/06/07 09:13:35;;;;;;;1999.90;999.90;;;23.60;99.90;;;;;;4958378;28;20074;-78
2022/06/07 09:16:02;;;;;;;1999.90;999.90;;;23.90;99.90;;;;;;4955523;28;20031;-78
2022/06/07 09:18:30;;;;;;;1999.90;999.90;;;23.80;99.70;;;;;;4961943;28;20026;-79
2022/06/07 09:21:09;;;;;;;1999.90;999.90;;;24.30;99.10;;;;;;4957932;28;20111;-75
2022/06/07 09:23:46;;;;;;;1999.90;999.90;;;23.70;99.90;;;;;;4930637;29;20055;-74
2022/06/07 09:26:17;;;;;;;1999.90;999.90;;;23.80;99.90;;;;;;4956268;28;20023;-78
2022/06/07 09:28:45;;;;;;;1999.90;999.90;;;23.30;99.90;;;;;;4961449;28;20035;-79
2022/06/07 09:31:15;;;;;;;1999.90;999.90;;;23.80;99.70;;;;;;4959737;28;20049;-75
2022/06/07 09:33:53;;;;;;;1999.90;999.90;;;24.80;98.40;;;;;;4954531;28;20031;-76
2022/06/07 09:36:25;;;;;;;1999.90;999.90;;;24.60;97.20;;;;;;4953349;28;20403;-78
2022/06/07 09:39:19;;;;;;;1999.90;999.90;;;22.10;99.90;;;;;;4952716;28;20027;-74
2022/06/07 09:41:54;;;;;;;1999.90;999.90;;;20.70;99.90;;;;;;4925892;28;20137;-74
2022/06/07 09:44:38;;;;;;;1999.90;999.90;;;20.30;99.90;;;;;;4952717;28;20031;-74
2022/06/07 09:47:21;;;;;;;1999.90;999.90;;;21.20;99.90;;;;;;4952958;28;20034;-73
2022/06/07 09:49:51;;;;;;;1999.90;999.90;;;22.90;99.50;;;;;;4952656;28;20041;-74
2022/06/07 09:52:21;;;;;;;1999.90;999.90;;;24.10;97.20;;;;;;4953377;28;20041;-77
2022/06/07 09:54:49;;;;;;;1999.90;999.90;;;24.30;96.60;;;;;;4935907;29;20028;-75
2022/06/07 09:57:30;;;;;;;1999.90;999.90;;;24.60;96.50;;;;;;4963576;28;20144;-74
2022/06/07 10:00:05;;;;;;;1999.90;999.90;;;24.20;96.80;;;;;;4960498;28;20023;-73
2022/06/07 10:03:08;;;;;;;1999.90;999.90;;;24.90;96.40;;;;;;4940079;29;20043;-75
2022/06/07 10:05:47;;;;;;;1999.90;999.90;;;24.80;96.30;;;;;;4914033;28;20125;-74
2022/06/07 10:08:41;;;;;;;1999.90;999.90;;;24.40;97.00;;;;;;4957702;28;20031;-78
2022/06/07 10:11:13;;;;;;;1999.90;999.90;;;24.80;96.50;;;;;;4933900;29;20031;-75
2022/06/07 10:13:51;;;;;;;1999.90;999.90;;;25.80;94.90;;;;;;4958402;28;20031;-74
2022/06/07 10:16:22;;;;;;;1999.90;999.90;;;26.00;94.40;;;;;;4954472;28;20027;-80
2022/06/07 10:19:00;;;;;;;1999.90;999.90;;;24.50;95.70;;;;;;4953945;28;20031;-77
2022/06/07 10:21:47;;;;;;;1999.90;999.90;;;22.60;97.80;;;;;;4938209;28;20059;-75
2022/06/07 10:24:26;;;;;;;1999.90;999.90;;;22.00;99.30;;;;;;4940024;28;20047;-73
2022/06/07 10:27:04;;;;;;;1999.90;999.90;;;22.00;99.10;;;;;;4930879;29;20050;-74
2022/06/07 10:29:54;;;;;;;1999.90;999.90;;;21.90;99.90;;;;;;4931210;28;20467;-74
2022/06/07 10:32:33;;;;;;;1999.90;999.90;;;21.30;99.90;;;;;;4958172;28;20034;-76
2022/06/07 10:35:23;;;;;;;1999.90;999.90;;;21.20;99.90;;;;;;4959863;28;20026;-73
2022/06/07 10:38:06;;;;;;;1999.90;999.90;;;23.10;99.90;;;;;;4958545;28;20038;-79
2022/06/07 10:40:41;;;;;;;1999.90;999.90;;;23.50;99.00;;;;;;4946029;28;20039;-75
2022/06/07 10:43:23;;;;;;;1999.90;999.90;;;23.90;97.80;;;;;;4938687;28;20077;-73
2022/06/07 10:45:54;;;;;;;1999.90;999.90;;;24.50;96.30;;;;;;4945880;28;20031;-75
2022/06/07 10:48:38;;;;;;;1999.90;999.90;;;24.40;96.70;;;;;;4942466;28;20051;-75
2022/06/07 10:54:20;;;;;;;1999.90;999.90;;;25.40;95.30;;;;;;4955019;28;20508;-74
2022/06/07 10:56:52;;;;;;;1999.90;999.90;;;25.00;95.20;;;;;;4935170;28;20474;-76
2022/06/07 10:59:21;;;;;;;1999.90;999.90;;;24.80;94.90;;;;;;4946529;28;20442;-76
2022/06/07 11:02:00;;;;;;;1999.90;999.90;;;24.90;95.90;;;;;;4952705;28;20042;-73
2022/06/07 11:10:32;;;;;;;1999.90;999.90;;;24.70;96.10;;;;;;4935894;28;20715;-75
2022/06/07 11:13:43;;;;;;;1999.90;999.90;;;24.40;96.30;;;;;;4949171;28;20023;-74
2022/06/07 11:16:11;;;;;;;1999.90;999.90;;;24.40;96.50;;;;;;4927782;29;20028;-76
2022/06/07 11:18:40;;;;;;;1999.90;999.90;;;24.10;96.90;;;;;;4931466;29;20114;-76
2022/06/07 11:21:06;;;;;;;1999.90;999.90;;;24.20;97.10;;;;;;4929298;29;20032;-76
2022/06/07 11:23:38;;;;;;;1999.90;999.90;;;23.80;98.10;;;;;;4915537;29;20036;-76
2022/06/07 11:26:14;;;;;;;1999.90;999.90;;;23.10;99.50;;;;;;4929275;29;20039;-76
2022/06/07 11:28:39;;;;;;;1999.90;999.90;;;22.20;99.90;;;;;;4922515;29;20031;-76
2022/06/07 11:31:23;;;;;;;1999.90;999.90;;;23.10;99.90;;;;;;4932564;29;20095;-77
2022/06/07 11:33:52;;;;;;;1999.90;999.90;;;23.30;99.00;;;;;;4930292;29;20059;-77
2022/06/07 11:36:20;;;;;;;1999.90;999.90;;;23.10;98.10;;;;;;4928730;29;21441;-77
2022/06/07 11:38:55;;;;;;;1999.90;999.90;;;23.80;98.40;;;;;;4930741;29;20086;-76
2022/06/07 11:41:38;;;;;;;1999.90;999.90;;;24.60;97.30;;;;;;4933415;29;20050;-76
2022/06/07 11:44:27;;;;;;;1999.90;999.90;;;24.20;97.80;;;;;;4914105;29;20032;-77
2022/06/07 11:46:55;;;;;;;1999.90;999.90;;;24.40;97.70;;;;;;4927941;29;20044;-77
2022/06/07 11:49:24;;;;;;;1999.90;999.90;;;24.80;97.80;;;;;;4916672;29;20199;-78
2022/06/07 11:52:08;;;;;;;1999.90;999.90;;;24.70;97.60;;;;;;4955694;28;20410;-77
2022/06/07 11:54:40;;;;;;;1999.90;999.90;;;24.80;97.80;;;;;;4932513;29;20055;-78
2022/06/07 11:57:28;;;;;;;1999.90;999.90;;;24.90;97.50;;;;;;4938069;29;20395;-75
2022/06/07 12:00:16;;;;;;;1999.90;999.90;;;24.50;97.10;;;;;;4951371;28;20042;-81
2022/06/07 12:03:00;;;;;;;1999.90;999.90;;;24.30;98.10;;;;;;4929589;29;20074;-79
2022/06/07 12:05:33;;;;;;;1999.90;999.90;;;24.00;97.90;;;;;;4954719;28;20042;-77
2022/06/07 12:08:15;;;;;;;1999.90;999.90;;;24.00;98.60;;;;;;4939148;28;20058;-77
2022/06/07 12:10:57;;;;;;;1999.90;999.90;;;23.60;98.90;;;;;;4959795;28;20150;-78
2022/06/07 12:16:24;;;;;;;1999.90;999.90;;;23.60;99.70;;;;;;4954635;28;20042;-80
2022/06/07 12:18:55;;;;;;;1999.90;999.90;;;23.40;98.90;;;;;;4958113;28;20027;-80
2022/06/07 12:21:22;;;;;;;1999.90;999.90;;;23.40;99.20;;;;;;4955728;28;20027;-81
2022/06/07 12:23:52;;;;;;;1999.90;999.90;;;24.00;98.40;;;;;;4954819;29;20047;-79
2022/06/07 12:26:30;;;;;;;1999.90;999.90;;;22.90;99.30;;;;;;4960762;28;20041;-78
2022/06/07 12:29:19;;;;;;;1999.90;999.90;;;23.60;99.60;;;;;;4958166;28;20023;-84
2022/06/07 12:31:49;;;;;;;1999.90;999.90;;;23.20;99.30;;;;;;4931756;29;20043;-80
2022/06/07 12:34:19;;;;;;;1999.90;999.90;;;22.80;98.80;;;;;;4937134;28;20030;-79
2022/06/07 12:37:01;;;;;;;1999.90;999.90;;;22.90;98.80;;;;;;4956313;28;20371;-77
2022/06/07 12:39:28;;;;;;;1999.90;999.90;;;22.40;99.80;;;;;;4939263;29;20512;-77
2022/06/07 12:42:12;;;;;;;1999.90;999.90;;;22.60;99.60;;;;;;4937125;28;20036;-80